sensor_id;sensor_type;location;lat;lon;timestamp;pressure;altitude;pressure_sealevel;temperature;humidity
24280;BME280;12395;42.808;23.408;2023-11-19T00:02:20;94832.91;;;3.87;94.79
24280;BME280;12395;42.808;23.408;2023-11-19T00:04:45;94816.84;;;3.82;94.79
24280;BME280;12395;42.808;23.408;2023-11-19T00:07:11;94827.78;;;3.93;94.51
24280;BME280;12395;42.808;23.408;2023-11-19T00:09:38;94828.78;;;3.92;95.34
24280;BME280;12395;42.808;23.408;2023-11-19T00:12:05;94836.78;;;3.99;95.50
24280;BME280;12395;42.808;23.408;2023-11-19T00:14:30;94832.88;;;3.95;94.82
24280;BME280;12395;42.808;23.408;2023-11-19T00:16:56;94815.34;;;3.87;92.83
24280;BME280;12395;42.808;23.408;2023-11-19T00:19:21;94832.88;;;3.95;90.20
24280;BME280;12395;42.808;23.408;2023-11-19T00:21:47;94844.03;;;3.89;89.87
24280;BME280;12395;42.808;23.408;2023-11-19T00:24:13;94822.09;;;3.82;91.14
24280;BME280;12395;42.808;23.408;2023-11-19T00:26:41;94835.53;;;3.87;92.45
24280;BME280;12395;42.808;23.408;2023-11-19T00:29:07;94818.22;;;3.70;93.65
24280;BME280;12395;42.808;23.408;2023-11-19T00:31:32;94836.53;;;3.62;93.81
24280;BME280;12395;42.808;23.408;2023-11-19T00:33:58;94849.34;;;3.57;95.81
24280;BME280;12395;42.808;23.408;2023-11-19T00:36:23;94853.28;;;3.53;95.71
24280;BME280;12395;42.808;23.408;2023-11-19T00:38:49;94845.75;;;3.42;95.92
24280;BME280;12395;42.808;23.408;2023-11-19T00:41:15;94858.19;;;3.40;96.37
24280;BME280;12395;42.808;23.408;2023-11-19T00:43:41;94861.13;;;3.45;96.83
24280;BME280;12395;42.808;23.408;2023-11-19T00:46:07;94862.59;;;3.39;96.32
24280;BME280;12395;42.808;23.408;2023-11-19T00:48:33;94865.72;;;3.35;96.85
24280;BME280;12395;42.808;23.408;2023-11-19T00:50:58;94857.03;;;3.26;96.63
24280;BME280;12395;42.808;23.408;2023-11-19T00:53:23;94865.88;;;3.25;96.46
24280;BME280;12395;42.808;23.408;2023-11-19T00:55:49;94846.41;;;3.20;97.27
24280;BME280;12395;42.808;23.408;2023-11-19T00:58:14;94860.31;;;3.20;96.74
24280;BME280;12395;42.808;23.408;2023-11-19T01:00:39;94855.56;;;3.16;96.94
24280;BME280;12395;42.808;23.408;2023-11-19T01:03:05;94861.63;;;3.16;96.94
24280;BME280;12395;42.808;23.408;2023-11-19T01:05:32;94887.63;;;3.18;96.91
24280;BME280;12395;42.808;23.408;2023-11-19T01:07:57;94883.88;;;3.20;97.39
24280;BME280;12395;42.808;23.408;2023-11-19T01:10:23;94868.81;;;3.22;96.74
24280;BME280;12395;42.808;23.408;2023-11-19T01:12:50;94880.09;;;3.14;96.74
24280;BME280;12395;42.808;23.408;2023-11-19T01:15:15;94881.09;;;3.22;97.67
24280;BME280;12395;42.808;23.408;2023-11-19T01:17:43;94880.78;;;3.25;96.76
24280;BME280;12395;42.808;23.408;2023-11-19T01:20:09;94880.13;;;3.23;97.09
24280;BME280;12395;42.808;23.408;2023-11-19T01:22:37;94865.06;;;3.25;96.98
24280;BME280;12395;42.808;23.408;2023-11-19T01:25:03;94859.97;;;3.23;96.94
24280;BME280;12395;42.808;23.408;2023-11-19T01:27:30;94875.03;;;3.21;96.89
24280;BME280;12395;42.808;23.408;2023-11-19T01:29:55;94875.69;;;3.23;97.10
24280;BME280;12395;42.808;23.408;2023-11-19T01:32:21;94877.47;;;3.14;97.01
24280;BME280;12395;42.808;23.408;2023-11-19T01:34:49;94893.53;;;3.20;96.88
24280;BME280;12395;42.808;23.408;2023-11-19T01:37:14;94876.16;;;3.02;97.52
24280;BME280;12395;42.808;23.408;2023-11-19T01:39:39;94890.56;;;3.06;96.86
24280;BME280;12395;42.808;23.408;2023-11-19T01:42:05;94891.56;;;3.13;97.65
24280;BME280;12395;42.808;23.408;2023-11-19T01:44:30;94883.06;;;3.11;97.74
24280;BME280;12395;42.808;23.408;2023-11-19T01:46:57;94899.59;;;3.20;97.41
24280;BME280;12395;42.808;23.408;2023-11-19T01:49:23;94899.59;;;3.20;97.25
24280;BME280;12395;42.808;23.408;2023-11-19T01:51:49;94914.28;;;3.21;96.70
24280;BME280;12395;42.808;23.408;2023-11-19T01:54:15;94911.69;;;3.21;96.59
24280;BME280;12395;42.808;23.408;2023-11-19T01:56:40;94910.06;;;3.20;95.92
24280;BME280;12395;42.808;23.408;2023-11-19T01:59:08;94922.31;;;3.28;96.42
24280;BME280;12395;42.808;23.408;2023-11-19T02:01:35;94907.09;;;3.23;96.05
24280;BME280;12395;42.808;23.408;2023-11-19T02:04:05;94915.94;;;3.30;96.51
24280;BME280;12395;42.808;23.408;2023-11-19T02:06:32;94913.50;;;3.29;96.03
24280;BME280;12395;42.808;23.408;2023-11-19T02:08:58;94900.41;;;3.29;95.96
24280;BME280;12395;42.808;23.408;2023-11-19T02:11:23;94904.34;;;3.33;95.82
24280;BME280;12395;42.808;23.408;2023-11-19T02:13:54;94902.38;;;3.35;96.01
24280;BME280;12395;42.808;23.408;2023-11-19T02:16:20;94885.84;;;3.26;95.78
24280;BME280;12395;42.808;23.408;2023-11-19T02:18:45;94908.44;;;3.35;96.19
24280;BME280;12395;42.808;23.408;2023-11-19T02:21:10;94886.50;;;3.28;96.14
24280;BME280;12395;42.808;23.408;2023-11-19T02:23:36;94888.31;;;3.36;95.83
24280;BME280;12395;42.808;23.408;2023-11-19T02:28:53;94911.53;;;3.31;94.86
24280;BME280;12395;42.808;23.408;2023-11-19T02:31:18;94896.47;;;3.25;95.81
24280;BME280;12395;42.808;23.408;2023-11-19T02:33:44;94892.56;;;3.29;95.36
24280;BME280;12395;42.808;23.408;2023-11-19T02:36:10;94884.03;;;3.27;95.65
24280;BME280;12395;42.808;23.408;2023-11-19T02:38:36;94888.94;;;3.30;95.69
24280;BME280;12395;42.808;23.408;2023-11-19T02:41:05;94896.13;;;3.28;95.16
24280;BME280;12395;42.808;23.408;2023-11-19T02:43:34;94902.69;;;3.16;94.80
24280;BME280;12395;42.808;23.408;2023-11-19T02:46:01;94889.25;;;3.02;95.08
24280;BME280;12395;42.808;23.408;2023-11-19T02:48:27;94887.09;;;2.82;96.48
24280;BME280;12395;42.808;23.408;2023-11-19T02:50:52;94892.53;;;2.88;97.67
24280;BME280;12395;42.808;23.408;2023-11-19T02:53:18;94886.28;;;2.81;97.17
24280;BME280;12395;42.808;23.408;2023-11-19T02:55:47;94895.94;;;2.89;97.20
24280;BME280;12395;42.808;23.408;2023-11-19T02:58:15;94854.88;;;2.73;96.95
24280;BME280;12395;42.808;23.408;2023-11-19T03:00:49;94873.03;;;2.91;96.56
24280;BME280;12395;42.808;23.408;2023-11-19T03:03:19;94882.72;;;2.90;96.89
24280;BME280;12395;42.808;23.408;2023-11-19T03:05:47;94909.06;;;2.97;96.98
24280;BME280;12395;42.808;23.408;2023-11-19T03:08:14;94868.97;;;2.88;96.57
24280;BME280;12395;42.808;23.408;2023-11-19T03:10:40;94898.91;;;2.94;96.10
24280;BME280;12395;42.808;23.408;2023-11-19T03:13:11;94916.72;;;2.98;96.25
24280;BME280;12395;42.808;23.408;2023-11-19T03:15:37;94904.63;;;2.97;96.91
24280;BME280;12395;42.808;23.408;2023-11-19T03:18:02;94917.56;;;3.07;96.69
24280;BME280;12395;42.808;23.408;2023-11-19T03:20:30;94912.16;;;3.08;97.23
24280;BME280;12395;42.808;23.408;2023-11-19T03:22:56;94906.44;;;3.05;95.85
24280;BME280;12395;42.808;23.408;2023-11-19T03:25:25;94909.88;;;3.13;95.79
24280;BME280;12395;42.808;23.408;2023-11-19T03:27:50;94916.59;;;3.16;95.94
24280;BME280;12395;42.808;23.408;2023-11-19T03:30:16;94908.25;;;3.21;96.09
24280;BME280;12395;42.808;23.408;2023-11-19T03:32:42;94907.91;;;3.07;95.28
24280;BME280;12395;42.808;23.408;2023-11-19T03:35:08;94916.75;;;3.14;96.05
24280;BME280;12395;42.808;23.408;2023-11-19T03:37:34;94904.66;;;3.13;96.52
24280;BME280;12395;42.808;23.408;2023-11-19T03:39:59;94917.56;;;3.15;95.30
24280;BME280;12395;42.808;23.408;2023-11-19T03:42:29;94908.56;;;3.18;95.74
24280;BME280;12395;42.808;23.408;2023-11-19T03:44:57;94914.78;;;3.17;95.70
24280;BME280;12395;42.808;23.408;2023-11-19T03:47:23;94925.09;;;3.10;95.54
24280;BME280;12395;42.808;23.408;2023-11-19T03:49:49;94932.28;;;3.08;95.67
24280;BME280;12395;42.808;23.408;2023-11-19T03:52:15;94943.44;;;3.10;96.28
24280;BME280;12395;42.808;23.408;2023-11-19T03:54:40;94948.81;;;3.08;96.33
24280;BME280;12395;42.808;23.408;2023-11-19T03:57:06;94931.00;;;3.12;96.49
24280;BME280;12395;42.808;23.408;2023-11-19T03:59:31;94937.19;;;3.11;96.03
24280;BME280;12395;42.808;23.408;2023-11-19T04:01:58;94933.63;;;3.12;95.46
24280;BME280;12395;42.808;23.408;2023-11-19T04:04:26;94942.75;;;3.08;95.64
24280;BME280;12395;42.808;23.408;2023-11-19T04:06:51;94941.94;;;3.07;95.00
24280;BME280;12395;42.808;23.408;2023-11-19T04:09:17;94930.16;;;3.03;95.36
24280;BME280;12395;42.808;23.408;2023-11-19T04:11:42;94926.53;;;2.96;95.78
24280;BME280;12395;42.808;23.408;2023-11-19T04:14:07;94930.75;;;2.81;95.78
24280;BME280;12395;42.808;23.408;2023-11-19T04:16:33;94943.53;;;2.84;96.32
24280;BME280;12395;42.808;23.408;2023-11-19T04:18:58;94934.50;;;2.79;96.67
24280;BME280;12395;42.808;23.408;2023-11-19T04:21:23;94929.94;;;2.81;96.57
24280;BME280;12395;42.808;23.408;2023-11-19T04:23:49;94941.88;;;2.83;96.83
24280;BME280;12395;42.808;23.408;2023-11-19T04:26:14;94925.50;;;2.73;97.27
24280;BME280;12395;42.808;23.408;2023-11-19T04:28:41;94940.53;;;2.71;97.63
24280;BME280;12395;42.808;23.408;2023-11-19T04:31:06;94933.50;;;2.72;97.44
24280;BME280;12395;42.808;23.408;2023-11-19T04:33:32;94940.88;;;2.76;97.72
24280;BME280;12395;42.808;23.408;2023-11-19T04:35:57;94952.81;;;2.79;98.16
24280;BME280;12395;42.808;23.408;2023-11-19T04:38:22;94946.28;;;2.75;97.79
24280;BME280;12395;42.808;23.408;2023-11-19T04:40:48;94948.72;;;2.76;98.23
24280;BME280;12395;42.808;23.408;2023-11-19T04:43:13;94954.59;;;2.78;97.93
24280;BME280;12395;42.808;23.408;2023-11-19T04:45:38;94951.19;;;2.78;98.52
24280;BME280;12395;42.808;23.408;2023-11-19T04:48:05;94949.53;;;2.77;98.47
24280;BME280;12395;42.808;23.408;2023-11-19T04:50:30;94949.38;;;2.78;98.46
24280;BME280;12395;42.808;23.408;2023-11-19T04:52:56;94946.75;;;2.78;98.40
24280;BME280;12395;42.808;23.408;2023-11-19T04:55:21;94948.91;;;2.83;98.85
24280;BME280;12395;42.808;23.408;2023-11-19T04:57:47;94940.88;;;2.76;98.54
24280;BME280;12395;42.808;23.408;2023-11-19T05:00:13;94959.06;;;2.86;97.96
24280;BME280;12395;42.808;23.408;2023-11-19T05:02:38;94978.38;;;2.93;98.04
24280;BME280;12395;42.808;23.408;2023-11-19T05:05:04;94960.34;;;2.82;98.01
24280;BME280;12395;42.808;23.408;2023-11-19T05:07:30;94973.75;;;2.79;97.95
24280;BME280;12395;42.808;23.408;2023-11-19T05:09:55;94981.28;;;2.82;98.25
24280;BME280;12395;42.808;23.408;2023-11-19T05:12:21;94982.72;;;2.76;97.37
24280;BME280;12395;42.808;23.408;2023-11-19T05:14:48;94982.25;;;2.81;98.11
24280;BME280;12395;42.808;23.408;2023-11-19T05:17:16;94975.88;;;2.83;98.01
24280;BME280;12395;42.808;23.408;2023-11-19T05:19:43;94981.75;;;2.77;97.93
24280;BME280;12395;42.808;23.408;2023-11-19T05:22:08;94979.16;;;2.77;97.58
24280;BME280;12395;42.808;23.408;2023-11-19T05:24:33;94960.81;;;2.69;98.41
24280;BME280;12395;42.808;23.408;2023-11-19T05:26:59;94968.97;;;2.74;97.98
24280;BME280;12395;42.808;23.408;2023-11-19T05:29:25;94966.06;;;2.77;98.54
24280;BME280;12395;42.808;23.408;2023-11-19T05:31:50;94973.56;;;2.72;98.87
24280;BME280;12395;42.808;23.408;2023-11-19T05:34:15;94982.25;;;2.81;99.33
24280;BME280;12395;42.808;23.408;2023-11-19T05:36:41;94979.81;;;2.79;98.94
24280;BME280;12395;42.808;23.408;2023-11-19T05:39:06;94989.78;;;2.84;99.23
24280;BME280;12395;42.808;23.408;2023-11-19T05:41:31;94991.59;;;2.83;99.41
24280;BME280;12395;42.808;23.408;2023-11-19T05:43:57;94984.53;;;2.76;98.98
24280;BME280;12395;42.808;23.408;2023-11-19T05:46:22;95001.03;;;2.76;98.72
24280;BME280;12395;42.808;23.408;2023-11-19T05:48:48;95002.03;;;2.75;98.28
24280;BME280;12395;42.808;23.408;2023-11-19T05:51:13;94995.50;;;2.79;98.97
24280;BME280;12395;42.808;23.408;2023-11-19T05:53:40;94975.84;;;2.67;98.55
24280;BME280;12395;42.808;23.408;2023-11-19T05:56:06;95004.97;;;2.80;98.68
24280;BME280;12395;42.808;23.408;2023-11-19T05:58:34;95010.69;;;2.76;98.97
24280;BME280;12395;42.808;23.408;2023-11-19T06:01:01;95019.88;;;2.80;99.55
24280;BME280;12395;42.808;23.408;2023-11-19T06:03:26;95017.38;;;2.70;98.87
24280;BME280;12395;42.808;23.408;2023-11-19T06:05:52;95003.06;;;2.57;98.57
24280;BME280;12395;42.808;23.408;2023-11-19T06:08:19;95013.06;;;2.61;98.34
24280;BME280;12395;42.808;23.408;2023-11-19T06:10:45;95027.00;;;2.70;99.02
24280;BME280;12395;42.808;23.408;2023-11-19T06:13:12;95031.72;;;2.66;98.69
24280;BME280;12395;42.808;23.408;2023-11-19T06:15:43;95026.19;;;2.69;99.25
24280;BME280;12395;42.808;23.408;2023-11-19T06:18:09;95026.19;;;2.69;98.86
24280;BME280;12395;42.808;23.408;2023-11-19T06:20:37;95025.88;;;2.72;98.92
24280;BME280;12395;42.808;23.408;2023-11-19T06:23:02;95019.75;;;2.56;99.08
24280;BME280;12395;42.808;23.408;2023-11-19T06:25:27;95020.41;;;2.58;98.86
24280;BME280;12395;42.808;23.408;2023-11-19T06:27:53;95023.13;;;2.48;99.01
24280;BME280;12395;42.808;23.408;2023-11-19T06:30:19;95030.97;;;2.48;99.53
24280;BME280;12395;42.808;23.408;2023-11-19T06:32:45;95042.41;;;2.47;98.78
24280;BME280;12395;42.808;23.408;2023-11-19T06:35:11;95030.63;;;2.43;98.90
24280;BME280;12395;42.808;23.408;2023-11-19T06:37:40;95032.06;;;2.38;99.09
24280;BME280;12395;42.808;23.408;2023-11-19T06:40:06;95050.16;;;2.31;99.21
24280;BME280;12395;42.808;23.408;2023-11-19T06:42:32;95051.13;;;2.30;99.43
24280;BME280;12395;42.808;23.408;2023-11-19T06:45:06;95050.31;;;2.29;99.36
24280;BME280;12395;42.808;23.408;2023-11-19T06:47:31;95067.25;;;2.43;99.32
24280;BME280;12395;42.808;23.408;2023-11-19T06:49:58;95076.56;;;2.46;99.23
24280;BME280;12395;42.808;23.408;2023-11-19T06:52:23;95046.88;;;2.29;98.29
24280;BME280;12395;42.808;23.408;2023-11-19T06:54:49;95050.84;;;2.33;98.51
24280;BME280;12395;42.808;23.408;2023-11-19T06:57:14;95045.75;;;2.31;97.76
24280;BME280;12395;42.808;23.408;2023-11-19T06:59:40;95045.41;;;2.26;97.04
24280;BME280;12395;42.808;23.408;2023-11-19T07:02:06;95056.59;;;2.19;97.53
24280;BME280;12395;42.808;23.408;2023-11-19T07:04:32;95057.81;;;2.24;98.84
24280;BME280;12395;42.808;23.408;2023-11-19T07:06:58;95050.41;;;2.20;98.03
24280;BME280;12395;42.808;23.408;2023-11-19T07:09:25;95056.00;;;2.25;97.87
24280;BME280;12395;42.808;23.408;2023-11-19T07:11:50;95038.03;;;2.22;97.95
24280;BME280;12395;42.808;23.408;2023-11-19T07:14:17;95071.06;;;2.31;98.15
24280;BME280;12395;42.808;23.408;2023-11-19T07:16:43;95063.22;;;2.31;97.09
24280;BME280;12395;42.808;23.408;2023-11-19T07:19:09;95064.88;;;2.32;97.21
24280;BME280;12395;42.808;23.408;2023-11-19T07:21:34;95055.69;;;2.28;97.01
24280;BME280;12395;42.808;23.408;2023-11-19T07:24:00;95073.16;;;2.27;97.68
24280;BME280;12395;42.808;23.408;2023-11-19T07:26:26;95076.38;;;2.39;96.55
24280;BME280;12395;42.808;23.408;2023-11-19T07:28:52;95072.88;;;2.30;96.56
24280;BME280;12395;42.808;23.408;2023-11-19T07:31:18;95081.22;;;2.34;96.50
24280;BME280;12395;42.808;23.408;2023-11-19T07:33:45;95048.81;;;2.27;96.46
24280;BME280;12395;42.808;23.408;2023-11-19T07:36:11;95074.63;;;2.48;96.95
24280;BME280;12395;42.808;23.408;2023-11-19T07:38:37;95076.91;;;2.51;96.62
24280;BME280;12395;42.808;23.408;2023-11-19T07:41:04;95047.28;;;2.16;97.05
24280;BME280;12395;42.808;23.408;2023-11-19T07:43:30;95095.63;;;2.38;96.82
24280;BME280;12395;42.808;23.408;2023-11-19T07:45:55;95076.81;;;2.34;96.21
24280;BME280;12395;42.808;23.408;2023-11-19T07:48:21;95063.59;;;2.36;96.86
24280;BME280;12395;42.808;23.408;2023-11-19T07:50:49;95083.25;;;2.22;96.23
24280;BME280;12395;42.808;23.408;2023-11-19T07:53:18;95085.41;;;2.27;96.07
24280;BME280;12395;42.808;23.408;2023-11-19T07:55:43;95074.50;;;2.31;96.48
24280;BME280;12395;42.808;23.408;2023-11-19T07:58:12;95079.97;;;2.46;97.37
24280;BME280;12395;42.808;23.408;2023-11-19T08:00:38;95081.59;;;2.39;96.04
24280;BME280;12395;42.808;23.408;2023-11-19T08:03:04;95088.50;;;2.48;96.81
24280;BME280;12395;42.808;23.408;2023-11-19T08:05:29;95096.03;;;2.51;96.65
24280;BME280;12395;42.808;23.408;2023-11-19T08:07:55;95099.72;;;2.41;95.79
24280;BME280;12395;42.808;23.408;2023-11-19T08:10:20;95093.72;;;2.48;95.94
24280;BME280;12395;42.808;23.408;2023-11-19T08:12:45;95076.44;;;2.55;95.67
24280;BME280;12395;42.808;23.408;2023-11-19T08:15:11;95103.19;;;2.67;95.37
24280;BME280;12395;42.808;23.408;2023-11-19T08:17:37;95102.19;;;2.68;95.03
24280;BME280;12395;42.808;23.408;2023-11-19T08:20:03;95109.22;;;2.67;94.23
24280;BME280;12395;42.808;23.408;2023-11-19T08:22:30;95112.31;;;2.63;94.06
24280;BME280;12395;42.808;23.408;2023-11-19T08:24:55;95097.13;;;2.66;93.75
24280;BME280;12395;42.808;23.408;2023-11-19T08:27:21;95113.25;;;2.87;94.46
24280;BME280;12395;42.808;23.408;2023-11-19T08:29:53;95083.19;;;2.91;92.29
24280;BME280;12395;42.808;23.408;2023-11-19T08:32:19;95091.88;;;3.00;91.09
24280;BME280;12395;42.808;23.408;2023-11-19T08:34:44;95114.22;;;3.12;90.89
24280;BME280;12395;42.808;23.408;2023-11-19T08:37:10;95130.53;;;3.06;91.58
24280;BME280;12395;42.808;23.408;2023-11-19T08:39:35;95123.81;;;3.03;90.83
24280;BME280;12395;42.808;23.408;2023-11-19T08:42:03;95125.47;;;3.12;90.59
24280;BME280;12395;42.808;23.408;2023-11-19T08:44:28;95114.97;;;3.04;90.59
24280;BME280;12395;42.808;23.408;2023-11-19T08:46:53;95137.81;;;3.20;90.51
24280;BME280;12395;42.808;23.408;2023-11-19T08:49:19;95118.84;;;3.26;89.86
24280;BME280;12395;42.808;23.408;2023-11-19T08:51:44;95130.44;;;3.24;88.89
24280;BME280;12395;42.808;23.408;2023-11-19T08:54:10;95144.53;;;3.23;89.38
24280;BME280;12395;42.808;23.408;2023-11-19T08:56:36;95151.75;;;3.29;89.94
24280;BME280;12395;42.808;23.408;2023-11-19T08:59:02;95124.06;;;3.18;89.69
24280;BME280;12395;42.808;23.408;2023-11-19T09:01:27;95121.63;;;3.25;89.49
24280;BME280;12395;42.808;23.408;2023-11-19T09:03:53;95127.84;;;3.32;89.44
24280;BME280;12395;42.808;23.408;2023-11-19T09:06:19;95114.16;;;3.38;89.17
24280;BME280;12395;42.808;23.408;2023-11-19T09:08:44;95124.09;;;3.34;89.67
24280;BME280;12395;42.808;23.408;2023-11-19T09:11:10;95116.38;;;3.25;89.72
24280;BME280;12395;42.808;23.408;2023-11-19T09:13:35;95091.38;;;3.38;89.21
24280;BME280;12395;42.808;23.408;2023-11-19T09:16:01;95096.66;;;3.46;88.23
24280;BME280;12395;42.808;23.408;2023-11-19T09:18:31;95130.47;;;3.73;88.92
24280;BME280;12395;42.808;23.408;2023-11-19T09:20:58;95116.34;;;3.66;86.96
24280;BME280;12395;42.808;23.408;2023-11-19T09:23:23;95138.81;;;3.77;86.92
24280;BME280;12395;42.808;23.408;2023-11-19T09:25:54;95126.38;;;3.79;86.74
24280;BME280;12395;42.808;23.408;2023-11-19T09:28:19;95137.97;;;3.76;84.96
24280;BME280;12395;42.808;23.408;2023-11-19T09:30:45;95134.75;;;3.82;85.61
24280;BME280;12395;42.808;23.408;2023-11-19T09:33:10;95111.63;;;3.70;84.68
24280;BME280;12395;42.808;23.408;2023-11-19T09:35:36;95127.06;;;3.89;85.83
24280;BME280;12395;42.808;23.408;2023-11-19T09:38:01;95107.38;;;3.77;84.28
24280;BME280;12395;42.808;23.408;2023-11-19T09:40:27;95112.94;;;3.74;84.87
24280;BME280;12395;42.808;23.408;2023-11-19T09:42:53;95103.25;;;3.74;84.99
24280;BME280;12395;42.808;23.408;2023-11-19T09:45:21;95096.88;;;3.77;84.72
24280;BME280;12395;42.808;23.408;2023-11-19T09:47:47;95088.38;;;3.83;83.88
24280;BME280;12395;42.808;23.408;2023-11-19T09:50:16;95080.81;;;3.64;84.09
24280;BME280;12395;42.808;23.408;2023-11-19T09:52:44;95069.06;;;3.76;84.30
24280;BME280;12395;42.808;23.408;2023-11-19T09:55:09;95066.09;;;3.71;84.19
24280;BME280;12395;42.808;23.408;2023-11-19T09:57:35;95078.72;;;3.91;84.83
24280;BME280;12395;42.808;23.408;2023-11-19T10:00:04;95073.00;;;3.96;84.89
24280;BME280;12395;42.808;23.408;2023-11-19T10:02:34;95059.75;;;3.98;84.15
24280;BME280;12395;42.808;23.408;2023-11-19T10:05:12;95048.75;;;3.86;83.90
24280;BME280;12395;42.808;23.408;2023-11-19T10:07:38;95070.53;;;3.95;83.46
24280;BME280;12395;42.808;23.408;2023-11-19T10:10:04;95072.03;;;3.97;83.88
24280;BME280;12395;42.808;23.408;2023-11-19T10:12:30;95070.88;;;4.08;84.12
24280;BME280;12395;42.808;23.408;2023-11-19T10:14:57;95082.03;;;4.02;81.98
24280;BME280;12395;42.808;23.408;2023-11-19T10:17:33;95079.88;;;3.97;82.93
24280;BME280;12395;42.808;23.408;2023-11-19T10:19:58;95073.97;;;4.11;81.27
24280;BME280;12395;42.808;23.408;2023-11-19T10:22:24;95071.22;;;4.21;79.77
24280;BME280;12395;42.808;23.408;2023-11-19T10:24:50;95106.44;;;4.26;79.49
24280;BME280;12395;42.808;23.408;2023-11-19T10:27:15;95061.19;;;4.00;79.18
24280;BME280;12395;42.808;23.408;2023-11-19T10:29:45;95068.25;;;4.08;79.93
24280;BME280;12395;42.808;23.408;2023-11-19T10:32:12;95076.75;;;4.26;79.72
24280;BME280;12395;42.808;23.408;2023-11-19T10:34:38;95074.63;;;4.37;78.91
24280;BME280;12395;42.808;23.408;2023-11-19T10:37:05;95062.34;;;4.14;78.94
24280;BME280;12395;42.808;23.408;2023-11-19T10:39:53;95084.81;;;4.08;79.94
24280;BME280;12395;42.808;23.408;2023-11-19T10:42:21;95081.84;;;3.95;80.29
24280;BME280;12395;42.808;23.408;2023-11-19T10:44:47;95066.78;;;3.97;80.82
24280;BME280;12395;42.808;23.408;2023-11-19T10:47:14;95069.56;;;4.12;80.63
24280;BME280;12395;42.808;23.408;2023-11-19T10:49:42;95070.38;;;4.28;80.74
24280;BME280;12395;42.808;23.408;2023-11-19T10:52:09;95073.00;;;4.28;80.25
24280;BME280;12395;42.808;23.408;2023-11-19T10:54:34;95080.03;;;4.20;80.57
24280;BME280;12395;42.808;23.408;2023-11-19T10:57:01;95071.38;;;4.11;80.95
24280;BME280;12395;42.808;23.408;2023-11-19T10:59:31;95080.88;;;4.12;80.81
24280;BME280;12395;42.808;23.408;2023-11-19T11:02:03;95073.16;;;4.11;80.18
24280;BME280;12395;42.808;23.408;2023-11-19T11:04:31;95074.81;;;4.04;79.73
24280;BME280;12395;42.808;23.408;2023-11-19T11:06:59;95074.31;;;4.08;80.99
24280;BME280;12395;42.808;23.408;2023-11-19T11:09:30;95054.97;;;4.01;80.48
24280;BME280;12395;42.808;23.408;2023-11-19T11:11:55;95057.44;;;3.95;79.96
24280;BME280;12395;42.808;23.408;2023-11-19T11:14:24;95057.59;;;3.85;80.20
24280;BME280;12395;42.808;23.408;2023-11-19T11:16:51;95046.31;;;3.84;80.23
24280;BME280;12395;42.808;23.408;2023-11-19T11:19:16;95040.56;;;3.89;80.43
24280;BME280;12395;42.808;23.408;2023-11-19T11:21:45;95047.47;;;4.06;81.04
24280;BME280;12395;42.808;23.408;2023-11-19T11:24:34;95048.41;;;4.13;79.89
24280;BME280;12395;42.808;23.408;2023-11-19T11:33:11;95054.31;;;4.15;79.28
24280;BME280;12395;42.808;23.408;2023-11-19T11:38:36;95055.97;;;4.24;79.03
24280;BME280;12395;42.808;23.408;2023-11-19T11:41:33;95035.63;;;4.26;78.91
24280;BME280;12395;42.808;23.408;2023-11-19T11:43:58;95039.69;;;4.45;77.92
24280;BME280;12395;42.808;23.408;2023-11-19T11:49:05;95026.06;;;4.49;78.74
24280;BME280;12395;42.808;23.408;2023-11-19T11:57:01;95043.00;;;4.47;77.21
24280;BME280;12395;42.808;23.408;2023-11-19T11:59:36;95047.38;;;4.62;77.46
24280;BME280;12395;42.808;23.408;2023-11-19T12:02:03;95048.34;;;4.69;77.15
24280;BME280;12395;42.808;23.408;2023-11-19T12:04:28;95038.84;;;4.60;75.96
24280;BME280;12395;42.808;23.408;2023-11-19T12:07:08;95039.75;;;4.84;76.69
24280;BME280;12395;42.808;23.408;2023-11-19T12:09:40;95033.38;;;4.86;75.25
24280;BME280;12395;42.808;23.408;2023-11-19T12:12:18;95015.59;;;4.96;74.98
24280;BME280;12395;42.808;23.408;2023-11-19T12:15:02;95028.81;;;5.19;75.54
24280;BME280;12395;42.808;23.408;2023-11-19T12:20:04;95017.66;;;4.78;75.39
24280;BME280;12395;42.808;23.408;2023-11-19T12:22:40;95002.41;;;4.74;74.30
24280;BME280;12395;42.808;23.408;2023-11-19T12:25:07;95005.69;;;4.76;75.54
24280;BME280;12395;42.808;23.408;2023-11-19T12:27:34;94989.16;;;4.67;74.10
24280;BME280;12395;42.808;23.408;2023-11-19T12:30:00;94999.06;;;4.88;75.10
24280;BME280;12395;42.808;23.408;2023-11-19T12:32:25;94977.03;;;4.97;74.65
24280;BME280;12395;42.808;23.408;2023-11-19T12:34:52;95000.38;;;5.22;72.81
24280;BME280;12395;42.808;23.408;2023-11-19T12:37:18;94980.59;;;5.12;73.76
24280;BME280;12395;42.808;23.408;2023-11-19T12:39:44;94988.91;;;5.23;73.14
24280;BME280;12395;42.808;23.408;2023-11-19T12:42:09;94992.75;;;5.13;72.34
24280;BME280;12395;42.808;23.408;2023-11-19T12:44:36;94977.28;;;4.79;73.83
24280;BME280;12395;42.808;23.408;2023-11-19T12:47:06;94974.78;;;4.86;74.96
24280;BME280;12395;42.808;23.408;2023-11-19T12:49:32;94973.22;;;4.77;74.77
24280;BME280;12395;42.808;23.408;2023-11-19T12:51:58;94977.97;;;4.81;75.48
24280;BME280;12395;42.808;23.408;2023-11-19T12:54:37;94982.38;;;4.81;74.93
24280;BME280;12395;42.808;23.408;2023-11-19T12:57:04;94991.09;;;4.81;74.89
24280;BME280;12395;42.808;23.408;2023-11-19T12:59:30;94978.41;;;4.85;75.47
24280;BME280;12395;42.808;23.408;2023-11-19T13:02:00;94960.38;;;4.82;74.94
24280;BME280;12395;42.808;23.408;2023-11-19T13:04:29;94950.50;;;4.92;75.86
24280;BME280;12395;42.808;23.408;2023-11-19T13:07:01;94952.63;;;4.88;75.02
24280;BME280;12395;42.808;23.408;2023-11-19T13:09:29;94930.81;;;4.88;74.89
24280;BME280;12395;42.808;23.408;2023-11-19T13:11:55;94942.13;;;4.88;74.14
24280;BME280;12395;42.808;23.408;2023-11-19T13:14:22;94957.69;;;4.98;75.73
24280;BME280;12395;42.808;23.408;2023-11-19T13:16:48;94928.38;;;4.86;74.44
24280;BME280;12395;42.808;23.408;2023-11-19T13:19:17;94941.59;;;5.01;73.99
24280;BME280;12395;42.808;23.408;2023-11-19T13:21:44;94938.94;;;5.09;75.49